GAP2986 RPVA-RPLL
Flight info
| Callsign | GAP2986 |
|---|---|
| Flight time | N/A |
| Altitude | 31000 |
| Route | MALA5R MALAG W9 AKDAP AKDA3R |
| Aircraft | A320/M-VGDW/C |
Departure
| Time | N/A |
|---|---|
| Airport | Daniel Z. Romualdez Airport (RPVA) |
Arrival
| Time | 2026-05-05 09:05 |
|---|---|
| Airport | Ninoy Aquino International Airport (RPLL) |
| Time | Latitude | Longitude | Altitude | Speed | Heading |
|---|---|---|---|---|---|
| 2026-05-05 08:52 | 14.46987 | 121.34122 | 10262 ft | 351 kts | 294° |
| 2026-05-05 08:52 | 14.47946 | 121.31857 | 10055 ft | 339 kts | 294° |
| 2026-05-05 08:52 | 14.48866 | 121.29656 | 9992 ft | 323 kts | 291° |
| 2026-05-05 08:52 | 14.49236 | 121.27431 | 9956 ft | 305 kts | 262° |
| 2026-05-05 08:53 | 14.48574 | 121.25437 | 9967 ft | 285 kts | 239° |
| 2026-05-05 08:53 | 14.47532 | 121.23740 | 9969 ft | 280 kts | 234° |
| 2026-05-05 08:53 | 14.46441 | 121.22069 | 9942 ft | 281 kts | 235° |
| 2026-05-05 08:53 | 14.45376 | 121.20364 | 9787 ft | 280 kts | 237° |
| 2026-05-05 08:54 | 14.43365 | 121.16937 | 9379 ft | 278 kts | 238° |
| 2026-05-05 08:54 | 14.43034 | 121.16357 | 9291 ft | 278 kts | 238° |
| 2026-05-05 08:54 | 14.41422 | 121.13492 | 8816 ft | 276 kts | 239° |
| 2026-05-05 08:55 | 14.40463 | 121.11777 | 8537 ft | 275 kts | 239° |
| 2026-05-05 08:55 | 14.39513 | 121.10070 | 8253 ft | 274 kts | 239° |
| 2026-05-05 08:55 | 14.38565 | 121.08366 | 7971 ft | 272 kts | 239° |
| 2026-05-05 08:55 | 14.37617 | 121.06661 | 7695 ft | 271 kts | 239° |
| 2026-05-05 08:56 | 14.37314 | 121.06117 | 7607 ft | 271 kts | 239° |
| 2026-05-05 08:57 | 14.31172 | 120.95079 | 5752 ft | 262 kts | 239° |
| 2026-05-05 08:57 | 14.30263 | 120.93445 | 5479 ft | 262 kts | 239° |
| 2026-05-05 08:58 | 14.29355 | 120.91813 | 5199 ft | 262 kts | 239° |
| 2026-05-05 08:58 | 14.28510 | 120.90160 | 4999 ft | 261 kts | 251° |
| 2026-05-05 08:58 | 14.28332 | 120.88965 | 4981 ft | 254 kts | 276° |
| 2026-05-05 08:58 | 14.28430 | 120.88362 | 4961 ft | 249 kts | 288° |
| 2026-05-05 08:59 | 14.30811 | 120.86133 | 4463 ft | 233 kts | 340° |
| 2026-05-05 08:59 | 14.31313 | 120.85918 | 4378 ft | 233 kts | 340° |
| 2026-05-05 08:59 | 14.33777 | 120.84796 | 3955 ft | 232 kts | 337° |
| 2026-05-05 08:59 | 14.35210 | 120.84049 | 3709 ft | 233 kts | 335° |
| 2026-05-05 09:00 | 14.36651 | 120.83251 | 3458 ft | 233 kts | 334° |
| 2026-05-05 09:00 | 14.38111 | 120.82508 | 3175 ft | 230 kts | 348° |
| 2026-05-05 09:00 | 14.39615 | 120.82589 | 2974 ft | 213 kts | 32° |
| 2026-05-05 09:00 | 14.40687 | 120.83599 | 2986 ft | 210 kts | 57° |
| 2026-05-05 09:01 | 14.41464 | 120.84893 | 2977 ft | 209 kts | 63° |
| 2026-05-05 09:01 | 14.43425 | 120.88564 | 2475 ft | 184 kts | 62° |
| 2026-05-05 09:02 | 14.44052 | 120.89698 | 2222 ft | 178 kts | 63° |
| 2026-05-05 09:02 | 14.44646 | 120.90762 | 2002 ft | 162 kts | 63° |
| 2026-05-05 09:02 | 14.45191 | 120.91737 | 1776 ft | 150 kts | 64° |
| 2026-05-05 09:02 | 14.45695 | 120.92643 | 1577 ft | 140 kts | 63° |
| 2026-05-05 09:03 | 14.46175 | 120.93509 | 1422 ft | 139 kts | 63° |
| 2026-05-05 09:03 | 14.46655 | 120.94375 | 1271 ft | 134 kts | 62° |
| 2026-05-05 09:03 | 14.47108 | 120.95190 | 1086 ft | 130 kts | 65° |
| 2026-05-05 09:03 | 14.47555 | 120.95995 | 940 ft | 130 kts | 65° |
| 2026-05-05 09:04 | 14.48006 | 120.96818 | 805 ft | 131 kts | 63° |
| 2026-05-05 09:04 | 14.48469 | 120.97630 | 632 ft | 131 kts | 62° |
| 2026-05-05 09:04 | 14.48926 | 120.98447 | 485 ft | 132 kts | 65° |
| 2026-05-05 09:04 | 14.49369 | 120.99277 | 315 ft | 131 kts | 61° |
| 2026-05-05 09:05 | 14.49828 | 121.00092 | 136 ft | 130 kts | 60° |
| 2026-05-05 09:05 | 14.50127 | 121.00629 | 82 ft | 121 kts | 59° |
| 2026-05-05 09:05 | 14.50537 | 121.01369 | 82 ft | 58 kts | 62° |
| 2026-05-05 09:05 | 14.50689 | 121.01624 | 82 ft | 33 kts | 55° |
| 2026-05-05 09:06 | 14.50816 | 121.01759 | 82 ft | 23 kts | 37° |
| 2026-05-05 09:06 | 14.50889 | 121.01784 | 82 ft | 9 kts | 343° |
| 2026-05-05 09:06 | 14.50905 | 121.01746 | 82 ft | 6 kts | 249° |
| 2026-05-05 09:06 | 14.50885 | 121.01698 | 82 ft | 6 kts | 252° |